Time;durP1;ratioP1;P1;durP2;ratioP2;P2;SDS_P1;SDS_P2;PMS_P1;PMS_P2;Temp;Humidity;BMP_temperature;BMP_pressure;BME280_temperature;BME280_humidity;BME280_pressure;Samples;Min_cycle;Max_cycle;Signal;HPM_P1;HPM_P2
2021/06/12 00:02:26;;;;;;;5.05;2.45;;;;;;;;;;5166281;27;200486;-68
2021/06/12 00:04:52;;;;;;;3.83;1.83;;;;;;;;;;5151666;27;20084;-68
2021/06/12 00:07:19;;;;;;;5.72;2.88;;;;;;;;;;5151227;27;20019;-68
2021/06/12 00:09:45;;;;;;;9.68;2.88;;;;;;;;;;5150240;27;20023;-68
2021/06/12 00:14:48;;;;;;;3.88;2.03;;;;;;;;;;5133440;27;20107;-68
2021/06/12 00:19:17;;;;;;;4.43;2.20;;;;;;;;;;5126481;27;20912;-68
2021/06/12 00:23:24;;;;;;;5.45;3.22;;;;;;;;;;5126483;27;20439;-68
2021/06/12 00:27:03;;;;;;;4.28;2.38;;;;;;;;;;5125852;27;20385;-68
2021/06/12 00:29:44;;;;;;;5.18;2.92;;;;;;;;;;5126229;27;20381;-68
2021/06/12 00:32:10;;;;;;;5.57;2.75;;;;;;;;;;5110554;28;20074;-68
2021/06/12 00:34:36;;;;;;;3.65;2.20;;;;;;;;;;5108683;28;20020;-68
2021/06/12 00:37:03;;;;;;;5.78;2.50;;;;;;;;;;5110482;28;20095;-69
2021/06/12 00:40:59;;;;;;;5.07;2.90;;;;;;;;;;5126271;27;20376;-68
2021/06/12 00:43:32;;;;;;;4.85;2.78;;;;;;;;;;5126405;27;20380;-68
2021/06/12 00:48:27;;;;;;;5.03;2.47;;;;;;;;;;5126078;27;20387;-69
2021/06/12 00:50:54;;;;;;;4.85;2.72;;;;;;;;;;5109108;28;20123;-69
2021/06/12 00:53:36;;;;;;;6.32;2.85;;;;;;;;;;5110172;28;20085;-69
2021/06/12 00:56:03;;;;;;;4.30;2.22;;;;;;;;;;5108765;28;20012;-69
2021/06/12 00:58:30;;;;;;;4.72;2.13;;;;;;;;;;5110320;28;20028;-69
2021/06/12 01:00:56;;;;;;;4.97;2.75;;;;;;;;;;5109146;28;20077;-70
2021/06/12 01:03:23;;;;;;;4.82;2.83;;;;;;;;;;5110019;28;20475;-69
2021/06/12 01:07:51;;;;;;;5.45;2.97;;;;;;;;;;5126329;27;20373;-68
2021/06/12 01:10:19;;;;;;;4.88;2.35;;;;;;;;;;5110075;28;20693;-68
2021/06/12 01:12:54;;;;;;;5.07;2.70;;;;;;;;;;5110460;28;20024;-70
2021/06/12 01:15:21;;;;;;;4.45;2.53;;;;;;;;;;5110374;28;20024;-69
2021/06/12 01:18:34;;;;;;;4.68;2.78;;;;;;;;;;5126365;27;20872;-68
2021/06/12 01:24:12;;;;;;;5.80;2.45;;;;;;;;;;5126095;27;20378;-68
2021/06/12 01:26:56;;;;;;;5.57;2.90;;;;;;;;;;5110522;28;20392;-68
2021/06/12 01:29:41;;;;;;;6.80;2.97;;;;;;;;;;5109160;28;20543;-68
2021/06/12 01:32:09;;;;;;;3.85;2.25;;;;;;;;;;5109050;28;20106;-68
2021/06/12 01:34:37;;;;;;;4.50;2.65;;;;;;;;;;5110371;28;20024;-68
2021/06/12 01:37:03;;;;;;;5.63;2.45;;;;;;;;;;5108624;28;20080;-68
2021/06/12 01:41:02;;;;;;;3.88;2.28;;;;;;;;;;5092643;28;20116;-68
2021/06/12 01:43:31;;;;;;;4.47;2.55;;;;;;;;;;5110496;28;20028;-68
2021/06/12 01:45:57;;;;;;;5.50;2.40;;;;;;;;;;5110029;28;20028;-68
2021/06/12 01:51:34;;;;;;;4.40;2.22;;;;;;;;;;5126012;27;20877;-68
2021/06/12 01:54:27;;;;;;;6.18;2.90;;;;;;;;;;5126429;27;20380;-68
2021/06/12 01:56:54;;;;;;;3.53;2.17;;;;;;;;;;5110561;28;20103;-68
2021/06/12 02:01:31;;;;;;;4.32;2.80;;;;;;;;;;5126483;27;20384;-68
2021/06/12 02:08:16;;;;;;;3.97;2.60;;;;;;;;;;5126353;27;20868;-68
2021/06/12 02:12:00;;;;;;;6.25;2.50;;;;;;;;;;5126191;27;20863;-67
2021/06/12 02:14:26;;;;;;;5.68;2.70;;;;;;;;;;5110466;28;20537;-68
2021/06/12 02:16:53;;;;;;;5.47;2.28;;;;;;;;;;5110454;28;20020;-68
2021/06/12 02:19:20;;;;;;;5.25;2.05;;;;;;;;;;5110109;28;20066;-68
2021/06/12 02:22:09;;;;;;;5.07;2.63;;;;;;;;;;5126540;27;20377;-68
2021/06/12 02:25:47;;;;;;;4.93;2.70;;;;;;;;;;5126360;27;20860;-68
2021/06/12 02:28:14;;;;;;;5.07;2.97;;;;;;;;;;5110156;28;20060;-69
2021/06/12 02:30:45;;;;;;;6.60;2.53;;;;;;;;;;5109227;28;20444;-69
2021/06/12 02:34:58;;;;;;;5.22;3.13;;;;;;;;;;5129444;27;20115;-68
2021/06/12 02:37:24;;;;;;;4.95;2.67;;;;;;;;;;5131095;28;20043;-68
2021/06/12 02:42:07;;;;;;;5.78;3.45;;;;;;;;;;5126077;27;20373;-68
2021/06/12 02:44:33;;;;;;;5.97;3.13;;;;;;;;;;5110537;28;20101;-68
2021/06/12 02:47:03;;;;;;;8.10;3.85;;;;;;;;;;5110573;28;20016;-68
2021/06/12 02:49:34;;;;;;;6.35;3.45;;;;;;;;;;5109173;28;20119;-68
2021/06/12 02:52:02;;;;;;;6.28;4.03;;;;;;;;;;5110430;28;20024;-68
2021/06/12 02:54:28;;;;;;;6.40;4.25;;;;;;;;;;5110010;28;20038;-68
2021/06/12 02:58:05;;;;;;;5.13;2.80;;;;;;;;;;5126287;27;20376;-68
2021/06/12 03:00:34;;;;;;;5.78;3.15;;;;;;;;;;5110641;28;20497;-68
2021/06/12 03:03:33;;;;;;;6.90;3.13;;;;;;;;;;5126395;27;20849;-68
2021/06/12 03:06:00;;;;;;;5.72;2.88;;;;;;;;;;5109187;28;20028;-68
2021/06/12 03:08:29;;;;;;;7.60;3.38;;;;;;;;;;5110089;28;20032;-68
2021/06/12 03:13:29;;;;;;;6.75;3.70;;;;;;;;;;5126341;27;20400;-68
2021/06/12 03:20:24;;;;;;;7.38;4.40;;;;;;;;;;5126641;27;20377;-67
2021/06/12 03:22:52;;;;;;;6.90;3.90;;;;;;;;;;5110249;28;20031;-68
2021/06/12 03:25:45;;;;;;;7.40;4.57;;;;;;;;;;5126419;27;20377;-68
2021/06/12 03:28:11;;;;;;;7.20;4.40;;;;;;;;;;5109190;28;20026;-68
2021/06/12 03:32:59;;;;;;;9.30;5.25;;;;;;;;;;5126337;27;20396;-68
2021/06/12 03:37:30;;;;;;;7.70;4.25;;;;;;;;;;5125995;27;20872;-68
2021/06/12 03:39:56;;;;;;;6.93;3.78;;;;;;;;;;5110595;28;20099;-69
2021/06/12 03:43:05;;;;;;;9.98;4.60;;;;;;;;;;5126521;27;20403;-68
2021/06/12 03:45:32;;;;;;;8.45;4.63;;;;;;;;;;5110132;28;20049;-68
2021/06/12 03:48:01;;;;;;;8.65;4.78;;;;;;;;;;5110450;28;20023;-68
2021/06/12 03:51:21;;;;;;;7.95;4.35;;;;;;;;;;5126265;27;20377;-69
2021/06/12 03:53:48;;;;;;;8.48;4.70;;;;;;;;;;5110522;28;20027;-68
2021/06/12 03:56:26;;;;;;;8.30;4.30;;;;;;;;;;5110352;28;20445;-68
2021/06/12 03:58:52;;;;;;;8.18;4.40;;;;;;;;;;5110133;28;20020;-69
2021/06/12 04:01:19;;;;;;;6.63;4.00;;;;;;;;;;5109202;28;20016;-68
2021/06/12 04:04:39;;;;;;;7.60;4.25;;;;;;;;;;5126033;27;20376;-68
2021/06/12 04:09:56;;;;;;;6.90;3.67;;;;;;;;;;5126290;27;20738;-68
2021/06/12 04:12:22;;;;;;;9.77;3.55;;;;;;;;;;5108775;28;20024;-68
2021/06/12 04:14:48;;;;;;;5.53;3.30;;;;;;;;;;5110415;28;20028;-68
2021/06/12 04:17:16;;;;;;;9.70;3.75;;;;;;;;;;5110439;28;20027;-68
2021/06/12 04:19:42;;;;;;;7.93;4.13;;;;;;;;;;5109925;28;20020;-68
2021/06/12 04:24:36;;;;;;;8.80;3.78;;;;;;;;;;5126392;27;20380;-69
2021/06/12 04:27:02;;;;;;;9.88;4.47;;;;;;;;;;5110113;28;20088;-70
2021/06/12 04:29:29;;;;;;;9.88;5.00;;;;;;;;;;5109162;28;20056;-70
2021/06/12 04:31:55;;;;;;;8.90;4.60;;;;;;;;;;5110396;28;20095;-69
2021/06/12 04:34:22;;;;;;;9.98;4.38;;;;;;;;;;5109952;28;20055;-72
2021/06/12 04:36:49;;;;;;;7.25;4.72;;;;;;;;;;5110250;28;20024;-70
2021/06/12 04:39:15;;;;;;;9.45;5.13;;;;;;;;;;5110298;28;20008;-69
2021/06/12 04:41:41;;;;;;;8.32;4.38;;;;;;;;;;5110037;28;20031;-69
2021/06/12 04:44:07;;;;;;;9.05;4.47;;;;;;;;;;5108975;28;20035;-70
2021/06/12 04:47:09;;;;;;;7.68;4.00;;;;;;;;;;5126100;27;20377;-68
2021/06/12 04:51:24;;;;;;;7.45;4.00;;;;;;;;;;5126390;27;20133;-68
2021/06/12 04:55:17;;;;;;;6.82;3.70;;;;;;;;;;5125989;27;20374;-68
2021/06/12 04:59:47;;;;;;;7.85;4.20;;;;;;;;;;5126386;27;20381;-69
2021/06/12 05:02:14;;;;;;;8.68;4.35;;;;;;;;;;5108877;28;20111;-68
2021/06/12 05:05:49;;;;;;;7.20;4.25;;;;;;;;;;5126548;27;20364;-68
2021/06/12 05:08:15;;;;;;;10.27;5.15;;;;;;;;;;5108824;28;20055;-68
2021/06/12 05:10:41;;;;;;;9.43;4.63;;;;;;;;;;5110419;28;20099;-68
2021/06/12 05:17:03;;;;;;;10.13;3.60;;;;;;;;;;5126092;27;20380;-68
2021/06/12 05:19:29;;;;;;;7.47;4.43;;;;;;;;;;5110476;28;20031;-68
2021/06/12 05:22:16;;;;;;;6.85;3.83;;;;;;;;;;5126245;27;20487;-68
2021/06/12 05:24:42;;;;;;;10.82;4.28;;;;;;;;;;5110552;28;20028;-70
2021/06/12 05:27:08;;;;;;;14.85;5.55;;;;;;;;;;5110443;28;20464;-69
2021/06/12 05:30:05;;;;;;;6.22;3.70;;;;;;;;;;5129607;27;20118;-70
2021/06/12 05:32:31;;;;;;;8.85;4.57;;;;;;;;;;5130954;28;20031;-69
2021/06/12 05:34:59;;;;;;;6.65;3.88;;;;;;;;;;5130894;28;20026;-69
2021/06/12 05:37:26;;;;;;;7.00;3.58;;;;;;;;;;5130644;27;20047;-69
2021/06/12 05:39:52;;;;;;;8.57;3.50;;;;;;;;;;5130970;28;20375;-70
2021/06/12 05:42:18;;;;;;;10.40;4.18;;;;;;;;;;5131007;28;20026;-69
2021/06/12 05:44:46;;;;;;;5.93;3.63;;;;;;;;;;5130464;28;20430;-70
2021/06/12 05:49:21;;;;;;;9.48;3.47;;;;;;;;;;5126377;27;20381;-68
2021/06/12 05:51:48;;;;;;;6.70;4.35;;;;;;;;;;5109998;28;20376;-68
2021/06/12 05:54:26;;;;;;;7.97;4.15;;;;;;;;;;5126482;27;20380;-70
2021/06/12 05:57:04;;;;;;;7.00;3.80;;;;;;;;;;5125963;27;20373;-68
2021/06/12 05:59:31;;;;;;;6.30;2.88;;;;;;;;;;5109242;28;20024;-68
2021/06/12 06:01:57;;;;;;;9.32;4.88;;;;;;;;;;5109291;28;20445;-68
2021/06/12 06:04:36;;;;;;;9.70;4.05;;;;;;;;;;5126150;27;20381;-68
2021/06/12 06:08:45;;;;;;;5.40;3.28;;;;;;;;;;5126262;27;20369;-72
2021/06/12 06:11:12;;;;;;;6.07;3.22;;;;;;;;;;5108804;28;20054;-69
2021/06/12 06:13:41;;;;;;;8.25;3.25;;;;;;;;;;5110477;28;20069;-68
2021/06/12 06:16:08;;;;;;;5.88;3.08;;;;;;;;;;5109049;28;20023;-69
2021/06/12 06:18:35;;;;;;;5.40;2.85;;;;;;;;;;5108490;28;20065;-69
2021/06/12 06:21:01;;;;;;;6.90;3.38;;;;;;;;;;5109193;28;20636;-68
2021/06/12 06:23:27;;;;;;;5.30;3.65;;;;;;;;;;5109147;28;20024;-69
2021/06/12 06:27:47;;;;;;;7.75;3.55;;;;;;;;;;5126425;27;20377;-69
2021/06/12 06:30:13;;;;;;;6.18;3.33;;;;;;;;;;5110478;28;20054;-69
2021/06/12 06:32:39;;;;;;;5.82;4.10;;;;;;;;;;5110131;28;20052;-70
2021/06/12 06:35:06;;;;;;;5.20;3.10;;;;;;;;;;5109242;28;20020;-69
2021/06/12 06:38:34;;;;;;;7.55;3.15;;;;;;;;;;5082350;28;20456;-69
2021/06/12 06:41:00;;;;;;;5.95;3.45;;;;;;;;;;5049734;28;20040;-68
2021/06/12 06:43:27;;;;;;;5.93;3.40;;;;;;;;;;5050098;28;20053;-68
2021/06/12 06:45:53;;;;;;;6.25;3.17;;;;;;;;;;5048615;28;20116;-69
2021/06/12 06:48:20;;;;;;;5.43;2.70;;;;;;;;;;5048213;28;20584;-69
2021/06/12 06:50:46;;;;;;;4.15;2.42;;;;;;;;;;5049739;28;20511;-69
2021/06/12 06:53:13;;;;;;;6.20;2.70;;;;;;;;;;5049443;28;20025;-69
2021/06/12 06:56:51;;;;;;;5.65;2.75;;;;;;;;;;5126340;27;20380;-68
2021/06/12 06:59:18;;;;;;;4.35;2.53;;;;;;;;;;5110442;28;20027;-68
2021/06/12 07:01:44;;;;;;;5.20;2.92;;;;;;;;;;5110259;28;20436;-68
2021/06/12 07:04:10;;;;;;;4.32;2.40;;;;;;;;;;5110507;28;20055;-69
2021/06/12 07:06:36;;;;;;;3.65;2.33;;;;;;;;;;5110355;28;20035;-69
2021/06/12 07:11:20;;;;;;;4.40;2.40;;;;;;;;;;5126308;27;20140;-68
2021/06/12 07:14:31;;;;;;;4.45;2.47;;;;;;;;;;5126011;27;20376;-68
2021/06/12 07:17:08;;;;;;;4.55;2.53;;;;;;;;;;5126313;27;20384;-68
2021/06/12 07:19:34;;;;;;;4.05;2.78;;;;;;;;;;5110687;28;20043;-68
2021/06/12 07:22:00;;;;;;;7.07;3.05;;;;;;;;;;5110048;28;20383;-68
2021/06/12 07:25:09;;;;;;;6.55;2.72;;;;;;;;;;5126360;27;20384;-69
2021/06/12 07:27:35;;;;;;;3.80;2.25;;;;;;;;;;5109140;28;20039;-69
2021/06/12 07:30:02;;;;;;;3.55;2.05;;;;;;;;;;5110066;28;20030;-69
2021/06/12 07:34:34;;;;;;;194.38;185.00;;;;;;;;;;5126257;27;20916;-69
2021/06/12 07:39:04;;;;;;;482.45;450.80;;;;;;;;;;5126511;27;20388;-69
2021/06/12 07:41:31;;;;;;;314.17;288.73;;;;;;;;;;5110551;28;20034;-69
2021/06/12 07:43:57;;;;;;;3.72;2.10;;;;;;;;;;5108639;28;20497;-70
2021/06/12 07:46:24;;;;;;;559.75;514.65;;;;;;;;;;5110282;28;20379;-69
2021/06/12 07:48:50;;;;;;;615.13;562.53;;;;;;;;;;5110251;28;20403;-70
2021/06/12 07:51:16;;;;;;;620.30;561.25;;;;;;;;;;5109787;28;20022;-69
2021/06/12 07:53:42;;;;;;;743.58;642.45;;;;;;;;;;5108911;28;20047;-70
2021/06/12 07:56:08;;;;;;;734.47;637.42;;;;;;;;;;5108793;28;20020;-70
2021/06/12 07:58:35;;;;;;;759.53;643.97;;;;;;;;;;5108599;28;20028;-70
2021/06/12 08:01:01;;;;;;;757.22;652.65;;;;;;;;;;5108952;28;20387;-70
2021/06/12 08:03:28;;;;;;;802.78;658.30;;;;;;;;;;5108448;28;20035;-71
2021/06/12 08:05:54;;;;;;;807.83;657.15;;;;;;;;;;5109867;28;20090;-69
2021/06/12 08:08:21;;;;;;;786.42;656.92;;;;;;;;;;5109909;28;20136;-70
2021/06/12 08:10:47;;;;;;;583.38;527.42;;;;;;;;;;5109337;28;20020;-70
2021/06/12 08:13:13;;;;;;;786.28;654.20;;;;;;;;;;5109805;28;20032;-70
2021/06/12 08:15:40;;;;;;;758.88;662.03;;;;;;;;;;5108365;28;20031;-70
2021/06/12 08:18:07;;;;;;;707.30;630.80;;;;;;;;;;5109470;28;20103;-70
2021/06/12 08:20:33;;;;;;;821.65;663.83;;;;;;;;;;5108584;28;20027;-70
2021/06/12 08:24:51;;;;;;;758.35;653.03;;;;;;;;;;5125983;27;20384;-70
2021/06/12 08:29:35;;;;;;;549.60;509.90;;;;;;;;;;5126208;27;20388;-69
2021/06/12 08:32:01;;;;;;;789.58;671.33;;;;;;;;;;5110050;28;20032;-69
2021/06/12 08:34:27;;;;;;;664.17;597.03;;;;;;;;;;5108948;28;20035;-69
2021/06/12 08:36:53;;;;;;;2.55;1.95;;;;;;;;;;5109042;28;20023;-70
2021/06/12 08:40:41;;;;;;;651.65;591.17;;;;;;;;;;5126165;27;20845;-70
2021/06/12 08:43:07;;;;;;;3.65;2.13;;;;;;;;;;5109345;28;20028;-70
2021/06/12 08:46:54;;;;;;;3.75;1.98;;;;;;;;;;5125803;27;20422;-68
2021/06/12 08:49:20;;;;;;;375.27;354.95;;;;;;;;;;5110486;28;20027;-71
2021/06/12 08:51:46;;;;;;;72.47;65.28;;;;;;;;;;5109071;28;20429;-71
2021/06/12 08:54:17;;;;;;;523.13;481.23;;;;;;;;;;5108687;28;20027;-69
2021/06/12 08:56:43;;;;;;;478.17;432.92;;;;;;;;;;5109096;28;20016;-70
2021/06/12 08:59:10;;;;;;;3.90;2.00;;;;;;;;;;5110408;28;20092;-70
2021/06/12 09:02:15;;;;;;;4.60;2.22;;;;;;;;;;5126396;27;20381;-69
2021/06/12 09:04:45;;;;;;;3.45;2.25;;;;;;;;;;5110465;28;20097;-70
2021/06/12 09:07:21;;;;;;;4.80;1.88;;;;;;;;;;5108628;28;20031;-70
2021/06/12 09:09:48;;;;;;;4.75;1.98;;;;;;;;;;5110337;28;20028;-71
2021/06/12 09:12:15;;;;;;;3.30;1.98;;;;;;;;;;5110225;28;20024;-71
2021/06/12 09:14:41;;;;;;;3.78;1.77;;;;;;;;;;5109326;28;20132;-68
2021/06/12 09:17:08;;;;;;;742.42;666.10;;;;;;;;;;5109538;28;20027;-68
2021/06/12 09:19:41;;;;;;;3.65;2.15;;;;;;;;;;5109407;28;20023;-68
2021/06/12 09:22:10;;;;;;;460.20;415.60;;;;;;;;;;5109557;28;20056;-68
2021/06/12 09:24:45;;;;;;;3.10;1.98;;;;;;;;;;5109812;28;20024;-71
2021/06/12 09:28:52;;;;;;;4.63;1.65;;;;;;;;;;5125950;27;20384;-69
2021/06/12 09:31:21;;;;;;;3.70;1.95;;;;;;;;;;5109377;28;20388;-69
2021/06/12 09:33:48;;;;;;;5.10;2.38;;;;;;;;;;5110428;28;20028;-69
2021/06/12 09:36:15;;;;;;;3.55;2.10;;;;;;;;;;5109865;28;20022;-69
2021/06/12 09:40:29;;;;;;;2.80;2.00;;;;;;;;;;5126020;27;20388;-69
2021/06/12 09:42:56;;;;;;;2.60;1.85;;;;;;;;;;5109549;28;20490;-69
2021/06/12 09:45:26;;;;;;;4.28;2.47;;;;;;;;;;5109841;28;20089;-69
2021/06/12 09:48:07;;;;;;;2.33;1.80;;;;;;;;;;5110360;28;20027;-69
2021/06/12 09:50:33;;;;;;;2.80;1.50;;;;;;;;;;5110034;28;20091;-70
2021/06/12 09:53:09;;;;;;;3.80;2.25;;;;;;;;;;5108963;28;20128;-69
2021/06/12 09:55:36;;;;;;;3.17;1.92;;;;;;;;;;5110413;28;20024;-69
2021/06/12 09:58:03;;;;;;;3.75;1.90;;;;;;;;;;5108422;28;20078;-69
2021/06/12 10:00:30;;;;;;;5.40;2.22;;;;;;;;;;5110025;28;20028;-69
2021/06/12 10:02:57;;;;;;;5.22;2.35;;;;;;;;;;5110108;28;20092;-69
2021/06/12 10:06:13;;;;;;;4.82;2.22;;;;;;;;;;5133332;27;20330;-69
2021/06/12 10:08:40;;;;;;;4.30;2.20;;;;;;;;;;5131002;28;20027;-70
2021/06/12 10:11:06;;;;;;;4.32;1.98;;;;;;;;;;5128156;28;20019;-69
2021/06/12 10:13:33;;;;;;;3.83;2.08;;;;;;;;;;5112267;28;20119;-70
2021/06/12 10:15:59;;;;;;;3.95;1.88;;;;;;;;;;5112535;28;20369;-68
2021/06/12 10:18:26;;;;;;;3.22;1.77;;;;;;;;;;5112101;28;20490;-70
2021/06/12 10:20:52;;;;;;;4.85;1.95;;;;;;;;;;5112331;28;20019;-68
2021/06/12 10:23:18;;;;;;;5.60;2.53;;;;;;;;;;5130627;28;20028;-70
2021/06/12 10:25:44;;;;;;;5.72;2.22;;;;;;;;;;5111794;28;20027;-68
2021/06/12 10:28:11;;;;;;;4.70;2.20;;;;;;;;;;5112113;28;20047;-69
2021/06/12 10:30:38;;;;;;;3.40;1.98;;;;;;;;;;5112173;28;20023;-69
2021/06/12 10:33:04;;;;;;;3.08;2.08;;;;;;;;;;5130212;28;20428;-69
2021/06/12 10:35:30;;;;;;;3.50;2.33;;;;;;;;;;5130532;28;20020;-69
2021/06/12 10:37:59;;;;;;;3.65;2.03;;;;;;;;;;5112136;28;20027;-69
2021/06/12 10:40:36;;;;;;;4.63;2.10;;;;;;;;;;5130113;28;20064;-69
2021/06/12 10:43:16;;;;;;;3.42;2.08;;;;;;;;;;5130286;28;20073;-69
2021/06/12 10:45:43;;;;;;;3.60;2.05;;;;;;;;;;5129823;28;20100;-70
2021/06/12 10:48:10;;;;;;;3.47;2.33;;;;;;;;;;5130196;28;20015;-69
2021/06/12 10:50:42;;;;;;;3.47;1.90;;;;;;;;;;5130160;28;20023;-69
2021/06/12 10:53:18;;;;;;;4.47;1.98;;;;;;;;;;5111475;28;20024;-69
2021/06/12 10:55:55;;;;;;;3.97;2.08;;;;;;;;;;5130265;28;20098;-69
2021/06/12 10:58:30;;;;;;;4.35;2.28;;;;;;;;;;5130347;28;20043;-70
2021/06/12 11:01:16;;;;;;;3.38;1.88;;;;;;;;;;5111323;28;20110;-70
2021/06/12 11:06:56;;;;;;;;;;;;;;;;;;5130284;28;20429;-69
2021/06/12 11:09:30;;;;;;;4.03;2.40;;;;;;;;;;5129939;28;19965;-70
2021/06/12 11:12:00;;;;;;;4.53;2.13;;;;;;;;;;5129732;28;20030;-69
2021/06/12 11:14:28;;;;;;;2.33;1.60;;;;;;;;;;5129469;28;20506;-69
2021/06/12 11:19:33;;;;;;;4.05;1.90;;;;;;;;;;5116268;28;20498;-69
2021/06/12 11:22:17;;;;;;;3.03;1.98;;;;;;;;;;5115462;28;20028;-69
2021/06/12 11:24:44;;;;;;;4.43;1.65;;;;;;;;;;5115430;28;20032;-69
2021/06/12 11:27:22;;;;;;;2.63;1.60;;;;;;;;;;5115722;28;20475;-70
2021/06/12 11:30:07;;;;;;;1.48;1.35;;;;;;;;;;5115778;28;20102;-69
2021/06/12 11:32:34;;;;;;;2.80;1.70;;;;;;;;;;5115706;28;20031;-69
2021/06/12 11:35:00;;;;;;;2.88;1.77;;;;;;;;;;5115379;28;20098;-69
2021/06/12 11:37:28;;;;;;;3.05;1.90;;;;;;;;;;5115508;28;20055;-70
2021/06/12 11:39:56;;;;;;;2.78;1.50;;;;;;;;;;5115499;28;20022;-70
2021/06/12 11:42:22;;;;;;;3.47;1.70;;;;;;;;;;5115034;28;20076;-70
2021/06/12 11:44:48;;;;;;;3.15;1.67;;;;;;;;;;5096731;28;20059;-70
2021/06/12 11:47:29;;;;;;;3.97;1.60;;;;;;;;;;5111678;28;20019;-70
2021/06/12 11:49:55;;;;;;;2.47;1.50;;;;;;;;;;5096397;28;20028;-69
2021/06/12 11:52:21;;;;;;;5.00;1.88;;;;;;;;;;5115312;28;20019;-70
2021/06/12 11:54:47;;;;;;;2.33;1.42;;;;;;;;;;5115061;28;20049;-70
2021/06/12 11:57:14;;;;;;;2.88;1.70;;;;;;;;;;5095708;28;20084;-70
2021/06/12 11:59:41;;;;;;;3.63;1.80;;;;;;;;;;5096827;28;20071;-69
2021/06/12 12:02:07;;;;;;;8.60;3.35;;;;;;;;;;5114959;28;20118;-69
2021/06/12 12:04:39;;;;;;;8.55;2.75;;;;;;;;;;5114439;28;20496;-69
2021/06/12 12:07:06;;;;;;;3.77;1.93;;;;;;;;;;5114805;28;20065;-69
2021/06/12 12:09:44;;;;;;;8.73;2.63;;;;;;;;;;5114891;28;20027;-69
2021/06/12 12:12:12;;;;;;;5.43;1.92;;;;;;;;;;5114869;28;20019;-69
2021/06/12 12:14:39;;;;;;;2.83;1.50;;;;;;;;;;5096747;28;20425;-70
2021/06/12 12:17:07;;;;;;;3.90;1.95;;;;;;;;;;5095932;28;20471;-69
2021/06/12 12:19:33;;;;;;;2.30;1.60;;;;;;;;;;5114566;28;20046;-70
2021/06/12 12:22:01;;;;;;;4.15;2.05;;;;;;;;;;5114663;28;20050;-69
2021/06/12 12:24:29;;;;;;;7.43;3.72;;;;;;;;;;5095765;28;20051;-70
2021/06/12 12:27:01;;;;;;;4.57;1.70;;;;;;;;;;5114009;28;20026;-70
2021/06/12 12:29:29;;;;;;;3.65;1.70;;;;;;;;;;5095785;28;20016;-70
2021/06/12 12:31:59;;;;;;;4.47;1.60;;;;;;;;;;5114060;28;20030;-70
2021/06/12 12:34:27;;;;;;;1.92;1.30;;;;;;;;;;5114780;28;20380;-70
2021/06/12 12:36:53;;;;;;;3.53;1.60;;;;;;;;;;5114469;28;20027;-70
2021/06/12 12:39:20;;;;;;;2.88;1.65;;;;;;;;;;5113714;28;20027;-70
2021/06/12 12:41:54;;;;;;;18.65;2.30;;;;;;;;;;5114152;28;20020;-69
2021/06/12 12:44:20;;;;;;;3.63;1.73;;;;;;;;;;5114052;28;20387;-70
2021/06/12 12:46:47;;;;;;;4.43;1.40;;;;;;;;;;5113709;28;20375;-69
2021/06/12 12:49:18;;;;;;;1.60;1.10;;;;;;;;;;5113984;28;20028;-71
2021/06/12 12:51:52;;;;;;;2.72;1.40;;;;;;;;;;5114110;28;20016;-70
2021/06/12 12:54:18;;;;;;;2.40;1.30;;;;;;;;;;5095774;28;20023;-70
2021/06/12 12:56:49;;;;;;;1.65;1.30;;;;;;;;;;5095589;28;20027;-70
2021/06/12 12:59:29;;;;;;;3.00;1.40;;;;;;;;;;5095064;28;20031;-70
2021/06/12 13:01:56;;;;;;;2.70;1.20;;;;;;;;;;5095489;28;20043;-70
2021/06/12 13:04:29;;;;;;;3.33;1.60;;;;;;;;;;5113404;28;20122;-70
2021/06/12 13:07:05;;;;;;;3.67;1.38;;;;;;;;;;5113277;28;20494;-70
2021/06/12 13:09:31;;;;;;;2.50;1.63;;;;;;;;;;5113701;28;20095;-70
2021/06/12 13:12:03;;;;;;;2.92;1.63;;;;;;;;;;5113834;28;20022;-70
2021/06/12 13:14:29;;;;;;;;;;;;;;;;;;5095557;28;20020;-70
2021/06/12 13:17:18;;;;;;;3.10;1.50;;;;;;;;;;5113572;28;19907;-70
2021/06/12 13:19:50;;;;;;;2.17;1.65;;;;;;;;;;5113490;28;20085;-70
2021/06/12 13:22:35;;;;;;;3.63;1.88;;;;;;;;;;5113225;28;20568;-69
2021/06/12 13:25:05;;;;;;;3.13;1.95;;;;;;;;;;5094993;28;20042;-69
2021/06/12 13:27:38;;;;;;;3.42;1.92;;;;;;;;;;5094529;28;20436;-69
2021/06/12 13:30:04;;;;;;;;;;;;;;;;;;5095561;28;20023;-69
2021/06/12 13:32:30;;;;;;;3.60;2.20;;;;;;;;;;5095273;28;19953;-70
2021/06/12 13:34:56;;;;;;;3.60;2.22;;;;;;;;;;5112976;28;20385;-69
2021/06/12 13:37:24;;;;;;;6.90;3.15;;;;;;;;;;5113250;28;20051;-70
2021/06/12 13:39:51;;;;;;;3.30;2.47;;;;;;;;;;5112986;28;20024;-69
2021/06/12 13:42:19;;;;;;;16.08;2.95;;;;;;;;;;5112686;28;20020;-69
2021/06/12 13:45:02;;;;;;;10.05;3.20;;;;;;;;;;5113074;28;20395;-69
2021/06/12 13:47:28;;;;;;;10.10;3.47;;;;;;;;;;5113080;28;20019;-69
2021/06/12 13:49:54;;;;;;;6.00;3.17;;;;;;;;;;5112815;28;20020;-69
2021/06/12 13:52:20;;;;;;;8.00;3.05;;;;;;;;;;5113208;28;20429;-70
2021/06/12 13:54:46;;;;;;;6.13;3.30;;;;;;;;;;5094852;28;20008;-69
2021/06/12 13:57:17;;;;;;;5.25;3.30;;;;;;;;;;5112604;28;20028;-69
2021/06/12 13:59:43;;;;;;;7.35;3.47;;;;;;;;;;5094699;28;20087;-69
2021/06/12 14:02:09;;;;;;;9.27;3.35;;;;;;;;;;5112622;28;20439;-69
2021/06/12 14:04:37;;;;;;;6.65;3.08;;;;;;;;;;5091151;28;20071;-69
2021/06/12 14:07:04;;;;;;;7.53;3.47;;;;;;;;;;5092613;28;20016;-69
2021/06/12 14:09:30;;;;;;;5.65;3.72;;;;;;;;;;5092179;28;20024;-69
2021/06/12 14:11:56;;;;;;;4.97;3.42;;;;;;;;;;5092663;28;20024;-70
2021/06/12 14:14:22;;;;;;;5.07;3.03;;;;;;;;;;5092584;28;20031;-70
2021/06/12 14:16:49;;;;;;;5.05;2.75;;;;;;;;;;5092058;28;20027;-69
2021/06/12 14:19:15;;;;;;;4.30;2.50;;;;;;;;;;5092398;28;20020;-69
2021/06/12 14:21:41;;;;;;;5.25;2.17;;;;;;;;;;5092462;28;20031;-69
2021/06/12 14:24:10;;;;;;;5.63;2.90;;;;;;;;;;5087983;28;20392;-70
2021/06/12 14:26:36;;;;;;;5.00;2.63;;;;;;;;;;5092074;28;20020;-69
2021/06/12 14:29:03;;;;;;;4.40;2.85;;;;;;;;;;5092141;28;20086;-69
2021/06/12 14:31:29;;;;;;;3.92;2.60;;;;;;;;;;5092144;28;20065;-69
2021/06/12 14:33:56;;;;;;;5.05;3.22;;;;;;;;;;5092340;28;20024;-70
2021/06/12 14:36:22;;;;;;;5.03;2.90;;;;;;;;;;5092179;28;20078;-70
2021/06/12 14:40:11;;;;;;;4.85;2.90;;;;;;;;;;5126090;27;20382;-69
2021/06/12 14:42:38;;;;;;;5.15;2.78;;;;;;;;;;5110142;28;20034;-69
2021/06/12 14:45:05;;;;;;;4.85;2.58;;;;;;;;;;5110089;28;20098;-68
2021/06/12 14:47:31;;;;;;;5.05;3.08;;;;;;;;;;5110418;28;20016;-68
2021/06/12 14:50:10;;;;;;;6.90;2.70;;;;;;;;;;5126486;27;21075;-69
2021/06/12 14:52:36;;;;;;;6.60;2.75;;;;;;;;;;5110304;28;20048;-69
2021/06/12 14:55:06;;;;;;;4.55;2.58;;;;;;;;;;5110451;28;20073;-70
2021/06/12 14:57:33;;;;;;;5.35;3.13;;;;;;;;;;5110422;28;20016;-69
2021/06/12 14:59:59;;;;;;;6.50;2.95;;;;;;;;;;5109985;28;20496;-69
2021/06/12 15:02:25;;;;;;;4.57;2.95;;;;;;;;;;5109034;28;20028;-69
2021/06/12 15:04:51;;;;;;;4.88;2.67;;;;;;;;;;5110247;28;20073;-69
2021/06/12 15:07:18;;;;;;;5.43;2.95;;;;;;;;;;5108590;28;20383;-69
2021/06/12 15:09:44;;;;;;;4.30;2.78;;;;;;;;;;5110296;28;20028;-69
2021/06/12 15:13:52;;;;;;;5.93;2.50;;;;;;;;;;5126024;27;20737;-69
2021/06/12 15:16:18;;;;;;;4.28;2.70;;;;;;;;;;5110418;28;20486;-69
2021/06/12 15:18:45;;;;;;;4.43;2.63;;;;;;;;;;5109051;28;20485;-69
2021/06/12 15:21:11;;;;;;;4.28;2.40;;;;;;;;;;5110028;28;20016;-69
2021/06/12 15:23:37;;;;;;;5.88;2.22;;;;;;;;;;5109099;28;20028;-69
2021/06/12 15:26:03;;;;;;;4.43;2.22;;;;;;;;;;5110620;28;20050;-69
2021/06/12 15:28:30;;;;;;;5.40;2.38;;;;;;;;;;5109887;28;20024;-69
2021/06/12 15:30:57;;;;;;;4.13;2.35;;;;;;;;;;5110456;28;20024;-69
2021/06/12 15:33:24;;;;;;;4.45;2.30;;;;;;;;;;5110262;28;20036;-70
2021/06/12 15:35:51;;;;;;;5.50;2.63;;;;;;;;;;5109736;28;20076;-70
2021/06/12 15:38:17;;;;;;;3.25;1.98;;;;;;;;;;5108702;28;20118;-70
2021/06/12 15:40:43;;;;;;;3.90;2.42;;;;;;;;;;5109659;28;20094;-69
2021/06/12 15:43:09;;;;;;;3.72;2.17;;;;;;;;;;5109877;28;20031;-70
2021/06/12 15:45:36;;;;;;;2.53;1.92;;;;;;;;;;5109759;28;20032;-70
2021/06/12 15:48:03;;;;;;;3.20;1.98;;;;;;;;;;5109521;28;20026;-69
2021/06/12 15:51:40;;;;;;;3.92;2.03;;;;;;;;;;5126390;27;20422;-69
2021/06/12 15:54:07;;;;;;;3.72;2.13;;;;;;;;;;5110376;28;20034;-69
2021/06/12 15:56:33;;;;;;;3.92;2.40;;;;;;;;;;5108687;28;20023;-69
2021/06/12 15:59:00;;;;;;;3.75;2.40;;;;;;;;;;5110366;28;20035;-70
2021/06/12 16:01:26;;;;;;;4.22;2.45;;;;;;;;;;5110252;28;20027;-69
2021/06/12 16:03:53;;;;;;;4.65;2.70;;;;;;;;;;5109823;28;20024;-69
2021/06/12 16:06:19;;;;;;;4.28;2.80;;;;;;;;;;5110096;28;20022;-70
2021/06/12 16:08:45;;;;;;;5.68;3.10;;;;;;;;;;5109805;28;20023;-70
2021/06/12 16:11:11;;;;;;;4.20;2.70;;;;;;;;;;5110163;28;20395;-69
2021/06/12 16:13:37;;;;;;;4.47;2.83;;;;;;;;;;5108818;28;20028;-69
2021/06/12 16:16:03;;;;;;;6.97;3.08;;;;;;;;;;5109692;28;20023;-69
2021/06/12 16:18:30;;;;;;;3.58;1.98;;;;;;;;;;5110024;28;20388;-69
2021/06/12 16:20:56;;;;;;;3.40;2.40;;;;;;;;;;5108699;28;20055;-69
2021/06/12 16:23:22;;;;;;;2.65;1.83;;;;;;;;;;5109561;28;20012;-70
2021/06/12 16:25:48;;;;;;;4.88;2.30;;;;;;;;;;5109855;28;20399;-70
2021/06/12 16:29:31;;;;;;;2.67;2.08;;;;;;;;;;5126420;27;20376;-69
2021/06/12 16:31:57;;;;;;;6.97;2.65;;;;;;;;;;5110200;28;20032;-69